createdAt,value
2018-06-30T00:00:46.101Z,16.99
2018-06-30T00:03:14.452Z,17.05
2018-06-30T00:05:42.793Z,17.12
2018-06-30T00:08:12.030Z,17.21
2018-06-30T00:10:40.361Z,17.08
2018-06-30T00:13:08.659Z,17.00
2018-06-30T00:15:36.827Z,16.99
2018-06-30T00:18:07.189Z,17.04
2018-06-30T00:20:35.683Z,16.98
2018-06-30T00:23:04.358Z,17.05
2018-06-30T00:25:32.519Z,16.93
2018-06-30T00:28:01.206Z,16.82
2018-06-30T00:30:29.560Z,16.82
2018-06-30T00:33:01.127Z,16.92
2018-06-30T00:35:29.342Z,16.87
2018-06-30T00:37:57.561Z,16.83
2018-06-30T00:40:25.751Z,16.87
2018-06-30T00:42:54.048Z,16.83
2018-06-30T00:45:22.208Z,16.65
2018-06-30T00:47:50.471Z,16.70
2018-06-30T00:50:19.165Z,16.65
2018-06-30T00:52:47.423Z,16.50
2018-06-30T00:55:15.612Z,16.49
2018-06-30T00:57:43.754Z,16.57
2018-06-30T01:00:12.711Z,16.54
2018-06-30T01:02:41.011Z,16.41
2018-06-30T01:05:09.774Z,16.36
2018-06-30T01:07:37.943Z,16.44
2018-06-30T01:10:06.408Z,16.43
2018-06-30T01:12:34.665Z,16.40
2018-06-30T01:15:03.048Z,16.26
2018-06-30T01:17:31.317Z,16.19
2018-06-30T01:19:59.724Z,16.27
2018-06-30T01:22:28.106Z,16.18
2018-06-30T01:24:56.467Z,16.15
2018-06-30T01:27:24.696Z,16.15
2018-06-30T01:29:52.878Z,16.13
2018-06-30T01:32:21.156Z,16.08
2018-06-30T01:34:49.303Z,16.07
2018-06-30T01:37:17.562Z,16.03
2018-06-30T01:39:45.797Z,15.98
2018-06-30T01:42:14.483Z,15.93
2018-06-30T01:44:42.693Z,15.91
2018-06-30T01:47:11.433Z,15.97
2018-06-30T01:49:39.733Z,15.80
2018-06-30T01:52:08.130Z,15.74
2018-06-30T01:54:36.330Z,15.87
2018-06-30T01:57:04.645Z,15.64
2018-06-30T01:59:32.958Z,15.73
2018-06-30T02:02:01.347Z,15.84
2018-06-30T02:04:29.590Z,15.89
2018-06-30T02:06:57.916Z,15.99
2018-06-30T02:09:26.092Z,16.01
2018-06-30T02:11:54.262Z,15.81
2018-06-30T02:14:22.545Z,15.73
2018-06-30T02:16:50.861Z,15.78
2018-06-30T02:19:19.022Z,15.79
2018-06-30T02:21:47.244Z,15.71
2018-06-30T02:24:15.818Z,15.57
2018-06-30T02:26:44.090Z,15.58
2018-06-30T02:29:12.286Z,15.61
2018-06-30T02:31:40.498Z,15.60
2018-06-30T02:34:08.790Z,15.56
2018-06-30T02:36:37.156Z,15.54
2018-06-30T02:39:07.801Z,15.59
2018-06-30T02:41:36.126Z,15.48
2018-06-30T02:44:04.465Z,15.40
2018-06-30T02:46:32.909Z,15.38
2018-06-30T02:49:01.357Z,15.35
2018-06-30T02:51:29.773Z,15.40
2018-06-30T02:53:58.105Z,15.34
2018-06-30T02:56:26.550Z,15.28
2018-06-30T02:58:55.150Z,15.17
2018-06-30T03:01:23.389Z,15.18
2018-06-30T03:03:51.594Z,15.19
2018-06-30T03:06:20.325Z,15.24
2018-06-30T03:08:48.513Z,15.31
2018-06-30T03:11:16.622Z,15.35
2018-06-30T03:13:44.897Z,15.13
2018-06-30T03:16:15.862Z,14.98
2018-06-30T03:18:44.884Z,14.92
2018-06-30T03:21:13.390Z,14.87
2018-06-30T03:23:41.666Z,14.87
2018-06-30T03:26:10.079Z,14.78
2018-06-30T03:28:38.438Z,14.84
2018-06-30T03:31:07.751Z,14.75
2018-06-30T03:33:36.002Z,14.86
2018-06-30T03:36:04.378Z,14.89
2018-06-30T03:38:32.687Z,14.85
2018-06-30T03:41:00.923Z,14.80
2018-06-30T03:43:29.216Z,14.84
2018-06-30T03:45:57.523Z,14.77
2018-06-30T03:48:25.828Z,14.78
2018-06-30T03:50:54.111Z,14.80
2018-06-30T03:53:22.585Z,14.71
2018-06-30T03:55:51.142Z,14.81
2018-06-30T03:58:19.471Z,14.80
2018-06-30T04:00:47.890Z,14.86
2018-06-30T04:03:16.067Z,14.80
2018-06-30T04:05:44.389Z,14.78
2018-06-30T04:08:13.274Z,14.80
2018-06-30T04:10:41.722Z,14.92
2018-06-30T04:13:10.009Z,14.92
2018-06-30T04:15:38.193Z,14.87
2018-06-30T04:18:06.435Z,14.82
2018-06-30T04:20:34.766Z,14.74
2018-06-30T04:23:03.124Z,14.82
2018-06-30T04:25:31.778Z,14.77
2018-06-30T04:28:00.076Z,14.76
2018-06-30T04:30:28.347Z,14.79
2018-06-30T04:32:56.570Z,14.86
2018-06-30T04:35:25.365Z,14.88
2018-06-30T04:37:53.593Z,14.94
2018-06-30T04:40:21.822Z,14.99
2018-06-30T04:42:50.236Z,14.97
2018-06-30T04:45:18.827Z,15.05
2018-06-30T04:47:47.001Z,15.08
2018-06-30T04:50:15.307Z,15.16
2018-06-30T04:52:43.550Z,15.21
2018-06-30T04:55:11.926Z,15.13
2018-06-30T04:57:40.068Z,15.32
2018-06-30T05:00:08.274Z,15.07
2018-06-30T05:02:36.382Z,15.08
2018-06-30T05:05:04.574Z,15.11
2018-06-30T05:07:32.850Z,15.18
2018-06-30T05:10:01.071Z,15.08
2018-06-30T05:12:29.897Z,15.31
2018-06-30T05:14:58.124Z,15.23
2018-06-30T05:17:27.059Z,15.32
2018-06-30T05:19:55.328Z,15.35
2018-06-30T05:22:23.672Z,15.51
2018-06-30T05:24:51.977Z,15.52
2018-06-30T05:27:20.299Z,15.86
2018-06-30T05:29:48.627Z,15.98
2018-06-30T05:32:16.875Z,15.85
2018-06-30T05:34:45.331Z,15.93
2018-06-30T05:37:14.274Z,16.05
2018-06-30T05:39:42.986Z,16.49
2018-06-30T05:42:11.570Z,16.26
2018-06-30T05:44:39.920Z,16.37
2018-06-30T05:47:08.287Z,16.58
2018-06-30T05:49:36.620Z,17.82
2018-06-30T05:52:05.076Z,18.48
2018-06-30T05:54:33.913Z,19.06
2018-06-30T05:57:02.240Z,20.87
2018-06-30T05:59:30.879Z,19.97
2018-06-30T06:01:59.197Z,21.10
2018-06-30T06:04:27.569Z,20.47
2018-06-30T06:06:55.801Z,20.20
2018-06-30T06:09:24.285Z,21.23
2018-06-30T06:11:57.559Z,21.50
2018-06-30T06:14:26.019Z,20.67
2018-06-30T06:16:54.484Z,20.79
2018-06-30T06:19:22.870Z,22.82
2018-06-30T06:21:51.216Z,22.92
2018-06-30T06:24:19.571Z,22.92
2018-06-30T06:26:47.815Z,23.49
2018-06-30T06:29:16.810Z,23.99
2018-06-30T06:31:50.582Z,23.57
2018-06-30T06:34:18.965Z,22.14
2018-06-30T06:36:47.325Z,22.58
2018-06-30T06:39:16.178Z,21.27
2018-06-30T06:41:45.350Z,21.47
2018-06-30T06:44:13.853Z,22.49
2018-06-30T06:46:42.201Z,22.12
2018-06-30T06:49:10.857Z,23.79
2018-06-30T06:51:39.891Z,23.46
2018-06-30T06:54:08.274Z,24.08
2018-06-30T06:56:37.069Z,25.04
2018-06-30T06:59:07.005Z,24.12
2018-06-30T07:01:35.513Z,25.27
2018-06-30T07:04:03.864Z,22.22
2018-06-30T07:06:32.201Z,21.57
2018-06-30T07:09:01.543Z,23.52
2018-06-30T07:11:29.901Z,24.00
2018-06-30T07:13:58.361Z,24.36
2018-06-30T07:16:26.707Z,24.27
2018-06-30T07:18:55.216Z,24.43
2018-06-30T07:21:23.843Z,23.06
2018-06-30T07:23:51.984Z,24.44
2018-06-30T07:26:20.417Z,22.58
2018-06-30T07:28:48.811Z,23.04
2018-06-30T07:31:25.976Z,22.30
2018-06-30T07:33:54.325Z,23.11
2018-06-30T07:36:22.916Z,22.34
2018-06-30T07:38:51.995Z,22.26
2018-06-30T07:41:24.958Z,21.45
2018-06-30T07:43:53.562Z,21.84
2018-06-30T07:46:23.603Z,21.49
2018-06-30T07:48:52.040Z,21.91
2018-06-30T07:51:20.963Z,22.20
2018-06-30T07:53:49.366Z,22.00
2018-06-30T07:56:17.686Z,22.25
2018-06-30T07:58:46.326Z,22.18
2018-06-30T08:01:15.293Z,21.53
2018-06-30T08:03:44.102Z,21.65
2018-06-30T08:06:12.487Z,22.19
2018-06-30T08:08:40.725Z,22.75
2018-06-30T08:11:09.023Z,22.44
2018-06-30T08:13:37.395Z,22.92
2018-06-30T08:16:06.310Z,22.74
2018-06-30T08:18:35.134Z,22.66
2018-06-30T08:21:04.285Z,23.09
2018-06-30T08:23:33.166Z,23.44
2018-06-30T08:26:01.847Z,23.01
2018-06-30T08:28:30.256Z,23.00
2018-06-30T08:30:58.629Z,23.81
2018-06-30T08:33:26.888Z,23.39
2018-06-30T08:35:55.356Z,23.92
2018-06-30T08:38:23.962Z,23.78
2018-06-30T08:40:52.642Z,24.00
2018-06-30T08:43:20.995Z,24.27
2018-06-30T08:45:49.403Z,24.24
2018-06-30T08:48:18.075Z,24.46
2018-06-30T08:50:47.792Z,24.13
2018-06-30T08:53:16.571Z,24.29
2018-06-30T08:55:44.967Z,24.68
2018-06-30T08:58:13.284Z,24.81
2018-06-30T09:00:42.315Z,24.52
2018-06-30T09:03:10.833Z,25.07
2018-06-30T09:05:39.438Z,25.04
2018-06-30T09:08:08.057Z,25.28
2018-06-30T09:10:36.977Z,25.52
2018-06-30T09:13:05.698Z,24.55
2018-06-30T09:15:34.201Z,24.85
2018-06-30T09:18:03.394Z,25.09
2018-06-30T09:20:31.754Z,25.23
2018-06-30T09:23:00.210Z,25.46
2018-06-30T09:25:28.649Z,25.75
2018-06-30T09:27:57.461Z,25.66
2018-06-30T09:30:26.394Z,25.48
2018-06-30T09:32:55.564Z,25.27
2018-06-30T09:35:24.317Z,25.63
2018-06-30T09:37:54.272Z,25.40
2018-06-30T09:40:22.770Z,25.44
2018-06-30T09:42:51.608Z,25.72
2018-06-30T09:45:19.944Z,25.72
2018-06-30T09:47:48.268Z,25.72
2018-06-30T09:50:16.739Z,24.83
2018-06-30T09:52:45.190Z,25.43
2018-06-30T09:55:14.598Z,25.79
2018-06-30T09:57:47.137Z,25.72
2018-06-30T10:00:21.262Z,25.96
2018-06-30T10:02:49.746Z,26.47
2018-06-30T10:05:18.044Z,26.88
2018-06-30T10:07:46.342Z,25.24
2018-06-30T10:10:15.121Z,25.85
2018-06-30T10:12:44.728Z,26.16
2018-06-30T10:15:13.141Z,26.22
2018-06-30T10:17:41.587Z,26.64
2018-06-30T10:20:10.169Z,24.94
2018-06-30T10:22:38.822Z,24.83
2018-06-30T10:25:07.419Z,24.49
2018-06-30T10:27:36.931Z,25.10
2018-06-30T10:30:06.242Z,25.93
2018-06-30T10:32:34.640Z,26.73
2018-06-30T10:35:03.365Z,25.80
2018-06-30T10:37:31.933Z,26.12
2018-06-30T10:40:05.258Z,26.69
2018-06-30T10:42:33.686Z,26.93
2018-06-30T10:45:02.444Z,27.16
2018-06-30T10:47:31.307Z,27.39
2018-06-30T10:50:00.083Z,27.67
2018-06-30T10:52:28.886Z,27.20
2018-06-30T10:54:58.093Z,27.08
2018-06-30T10:57:30.934Z,26.45
2018-06-30T11:00:00.786Z,26.42
2018-06-30T11:02:29.387Z,27.20
2018-06-30T11:04:58.108Z,26.80
2018-06-30T11:07:26.454Z,26.17
2018-06-30T11:09:54.826Z,27.09
2018-06-30T11:12:23.064Z,26.00
2018-06-30T11:14:51.552Z,26.58
2018-06-30T11:17:20.076Z,27.08
2018-06-30T11:19:48.369Z,27.17
2018-06-30T11:22:18.963Z,27.58
2018-06-30T11:24:47.346Z,27.36
2018-06-30T11:27:16.852Z,26.31
2018-06-30T11:29:45.226Z,26.29
2018-06-30T11:32:13.688Z,26.67
2018-06-30T11:34:42.447Z,27.17
2018-06-30T11:37:10.856Z,27.37
2018-06-30T11:39:39.468Z,27.83
2018-06-30T11:42:08.556Z,27.04
2018-06-30T11:44:42.118Z,26.11
2018-06-30T11:47:10.649Z,26.44
2018-06-30T11:49:39.088Z,25.91
2018-06-30T11:52:07.513Z,25.89
2018-06-30T11:54:36.375Z,25.97
2018-06-30T11:57:06.262Z,25.74
2018-06-30T11:59:34.786Z,25.44
2018-06-30T12:02:04.198Z,25.60
2018-06-30T12:04:32.574Z,25.48
2018-06-30T12:07:05.199Z,26.76
2018-06-30T12:09:33.617Z,27.59
2018-06-30T12:12:01.990Z,27.59
2018-06-30T12:14:30.333Z,28.12
2018-06-30T12:16:58.681Z,27.81
2018-06-30T12:19:27.058Z,26.82
2018-06-30T12:21:55.564Z,25.78
2018-06-30T12:24:24.064Z,25.59
2018-06-30T12:26:52.595Z,26.25
2018-06-30T12:29:21.255Z,26.03
2018-06-30T12:31:49.612Z,25.31
2018-06-30T12:34:17.869Z,25.95
2018-06-30T12:36:46.527Z,26.06
2018-06-30T12:39:14.990Z,26.87
2018-06-30T12:41:43.555Z,27.59
2018-06-30T12:44:13.815Z,27.23
2018-06-30T12:46:43.260Z,27.14
2018-06-30T12:49:11.657Z,27.77
2018-06-30T12:51:40.098Z,26.37
2018-06-30T12:54:09.573Z,26.11
2018-06-30T12:56:38.382Z,26.10
2018-06-30T12:59:07.224Z,26.38
2018-06-30T13:01:36.173Z,26.53
2018-06-30T13:04:05.406Z,26.08
2018-06-30T13:06:33.816Z,26.78
2018-06-30T13:09:03.788Z,27.42
2018-06-30T13:11:32.305Z,27.22
2018-06-30T13:14:06.508Z,26.33
2018-06-30T13:16:35.906Z,26.28
2018-06-30T13:19:04.287Z,26.37
2018-06-30T13:21:32.860Z,25.89
2018-06-30T13:24:01.485Z,25.86
2018-06-30T13:26:29.892Z,25.68
2018-06-30T13:28:58.319Z,25.43
2018-06-30T13:31:27.063Z,25.63
2018-06-30T13:33:55.406Z,25.68
2018-06-30T13:36:23.982Z,25.43
2018-06-30T13:38:52.476Z,25.56
2018-06-30T13:41:20.806Z,25.41
2018-06-30T13:43:49.324Z,26.27
2018-06-30T13:46:17.708Z,27.15
2018-06-30T13:48:45.987Z,26.52
2018-06-30T13:51:15.152Z,26.99
2018-06-30T13:53:45.427Z,26.39
2018-06-30T13:56:14.286Z,25.83
2018-06-30T13:58:42.592Z,26.11
2018-06-30T14:01:10.878Z,25.66
2018-06-30T14:03:39.184Z,25.91
2018-06-30T14:06:07.550Z,25.61
2018-06-30T14:08:35.764Z,25.48
2018-06-30T14:11:04.351Z,25.42
2018-06-30T14:13:32.810Z,25.51
2018-06-30T14:16:15.547Z,25.69
2018-06-30T14:18:44.023Z,25.29
2018-06-30T14:21:12.473Z,25.29
2018-06-30T14:23:41.175Z,25.40
2018-06-30T14:26:09.566Z,25.41
2018-06-30T14:28:38.717Z,25.94
2018-06-30T14:31:07.051Z,25.70
2018-06-30T14:33:35.280Z,25.79
2018-06-30T14:36:03.695Z,25.91
2018-06-30T14:38:32.092Z,26.85
2018-06-30T14:41:00.284Z,27.01
2018-06-30T14:43:28.691Z,25.57
2018-06-30T14:45:56.949Z,25.47
2018-06-30T14:48:25.249Z,25.69
2018-06-30T14:50:53.442Z,25.57
2018-06-30T14:53:21.779Z,25.47
2018-06-30T14:55:50.249Z,25.82
2018-06-30T14:58:19.141Z,26.54
2018-06-30T15:00:47.517Z,26.66
2018-06-30T15:03:15.918Z,26.78
2018-06-30T15:05:44.215Z,27.00
2018-06-30T15:08:12.965Z,26.60
2018-06-30T15:10:41.503Z,25.97
2018-06-30T15:13:09.975Z,25.52
2018-06-30T15:15:38.825Z,25.25
2018-06-30T15:18:07.164Z,25.77
2018-06-30T15:20:35.541Z,25.58
2018-06-30T15:23:04.177Z,25.93
2018-06-30T15:25:32.597Z,25.82
2018-06-30T15:28:00.940Z,26.67
2018-06-30T15:30:29.792Z,27.15
2018-06-30T15:32:58.670Z,26.95
2018-06-30T15:35:26.924Z,26.99
2018-06-30T15:37:55.179Z,26.69
2018-06-30T15:40:24.024Z,26.73
2018-06-30T15:42:52.401Z,26.87
2018-06-30T15:45:21.314Z,26.22
2018-06-30T15:47:49.807Z,26.08
2018-06-30T15:50:18.714Z,26.51
2018-06-30T15:52:47.059Z,25.34
2018-06-30T15:55:15.416Z,25.52
2018-06-30T15:57:43.746Z,25.80
2018-06-30T16:00:12.228Z,25.90
2018-06-30T16:02:40.749Z,26.02
2018-06-30T16:05:09.026Z,26.49
2018-06-30T16:07:37.371Z,25.76
2018-06-30T16:10:05.786Z,25.70
2018-06-30T16:12:34.038Z,25.89
2018-06-30T16:15:02.767Z,25.91
2018-06-30T16:17:31.119Z,26.39
2018-06-30T16:19:59.493Z,26.38
2018-06-30T16:22:27.858Z,26.17
2018-06-30T16:24:56.010Z,25.77
2018-06-30T16:27:24.849Z,25.18
2018-06-30T16:29:53.182Z,24.89
2018-06-30T16:32:22.323Z,25.05
2018-06-30T16:34:50.784Z,25.04
2018-06-30T16:37:19.374Z,25.09
2018-06-30T16:39:47.565Z,25.61
2018-06-30T16:42:16.095Z,25.62
2018-06-30T16:44:44.773Z,25.36
2018-06-30T16:47:13.088Z,25.63
2018-06-30T16:49:42.261Z,25.27
2018-06-30T16:52:10.814Z,25.11
2018-06-30T16:54:39.019Z,24.34
2018-06-30T16:57:07.288Z,24.56
2018-06-30T16:59:35.698Z,25.02
2018-06-30T17:02:04.186Z,25.63
2018-06-30T17:04:32.624Z,25.37
2018-06-30T17:07:00.874Z,25.15
2018-06-30T17:09:29.870Z,25.37
2018-06-30T17:11:58.784Z,25.54
2018-06-30T17:14:27.270Z,25.13
2018-06-30T17:16:55.559Z,25.32
2018-06-30T17:19:23.730Z,25.12
2018-06-30T17:21:52.946Z,24.94
2018-06-30T17:24:21.344Z,24.49
2018-06-30T17:26:49.690Z,24.57
2018-06-30T17:29:18.139Z,24.99
2018-06-30T17:31:46.455Z,24.40
2018-06-30T17:34:14.760Z,24.67
2018-06-30T17:36:43.942Z,24.65
2018-06-30T17:39:12.478Z,24.21
2018-06-30T17:41:41.046Z,24.25
2018-06-30T17:44:09.738Z,24.22
2018-06-30T17:46:38.550Z,24.09
2018-06-30T17:49:07.487Z,24.41
2018-06-30T17:51:35.823Z,24.27
2018-06-30T17:54:04.680Z,24.19
2018-06-30T17:56:33.383Z,24.36
2018-06-30T17:59:01.822Z,24.48
2018-06-30T18:01:30.588Z,24.20
2018-06-30T18:03:59.089Z,24.30
2018-06-30T18:06:27.409Z,23.82
2018-06-30T18:08:55.746Z,24.16
2018-06-30T18:11:24.394Z,24.03
2018-06-30T18:13:53.002Z,23.76
2018-06-30T18:16:21.358Z,23.89
2018-06-30T18:18:49.802Z,23.92
2018-06-30T18:21:18.107Z,23.69
2018-06-30T18:23:46.364Z,23.80
2018-06-30T18:26:15.047Z,23.77
2018-06-30T18:28:43.885Z,23.63
2018-06-30T18:31:12.140Z,23.42
2018-06-30T18:33:41.212Z,23.35
2018-06-30T18:36:09.713Z,23.23
2018-06-30T18:38:38.475Z,23.37
2018-06-30T18:41:06.886Z,23.33
2018-06-30T18:43:35.247Z,23.12
2018-06-30T18:46:03.824Z,23.11
2018-06-30T18:48:32.567Z,23.08
2018-06-30T18:51:00.860Z,22.99
2018-06-30T18:53:33.693Z,22.90
2018-06-30T18:56:02.180Z,22.84
2018-06-30T18:58:30.506Z,22.81
2018-06-30T19:00:58.915Z,22.85
2018-06-30T19:03:27.338Z,22.70
2018-06-30T19:05:55.922Z,22.69
2018-06-30T19:08:24.338Z,22.60
2018-06-30T19:10:52.702Z,22.43
2018-06-30T19:13:21.116Z,22.46
2018-06-30T19:15:49.397Z,22.54
2018-06-30T19:18:17.674Z,22.33
2018-06-30T19:20:46.137Z,22.13
2018-06-30T19:23:14.722Z,22.08
2018-06-30T19:25:42.991Z,22.07
2018-06-30T19:28:11.337Z,21.99
2018-06-30T19:30:40.168Z,21.90
2018-06-30T19:33:08.713Z,21.86
2018-06-30T19:35:37.398Z,21.73
2018-06-30T19:38:05.855Z,21.69
2018-06-30T19:40:34.319Z,21.62
2018-06-30T19:43:02.698Z,21.82
2018-06-30T19:45:31.378Z,21.81
2018-06-30T19:48:04.239Z,21.83
2018-06-30T19:50:32.731Z,21.64
2018-06-30T19:53:01.183Z,21.58
2018-06-30T19:55:29.444Z,21.48
2018-06-30T19:57:57.762Z,21.62
2018-06-30T20:00:26.125Z,21.46
2018-06-30T20:02:54.518Z,21.34
2018-06-30T20:05:22.848Z,21.39
2018-06-30T20:07:53.847Z,21.34
2018-06-30T20:10:23.038Z,21.28
2018-06-30T20:12:51.413Z,21.33
2018-06-30T20:15:20.088Z,21.26
2018-06-30T20:17:48.364Z,21.27
2018-06-30T20:20:16.702Z,21.18
2018-06-30T20:22:45.403Z,21.15
2018-06-30T20:25:13.626Z,21.14
2018-06-30T20:27:42.178Z,21.00
2018-06-30T20:30:10.424Z,21.08
2018-06-30T20:32:43.001Z,20.85
2018-06-30T20:35:11.411Z,20.91
2018-06-30T20:37:39.795Z,20.79
2018-06-30T20:40:08.288Z,20.74
2018-06-30T20:42:36.716Z,20.70
2018-06-30T20:45:05.424Z,20.74
2018-06-30T20:47:33.726Z,20.80
2018-06-30T20:50:05.775Z,20.71
2018-06-30T20:52:34.356Z,20.69
2018-06-30T20:55:02.716Z,20.59
2018-06-30T20:57:33.800Z,20.55
2018-06-30T21:00:02.811Z,20.42
2018-06-30T21:02:33.080Z,20.36
2018-06-30T21:05:02.931Z,20.37
2018-06-30T21:07:31.254Z,20.32
2018-06-30T21:09:59.587Z,20.16
2018-06-30T21:12:28.776Z,20.21
2018-06-30T21:14:57.262Z,20.27
2018-06-30T21:17:27.160Z,20.17
2018-06-30T21:19:55.588Z,20.17
2018-06-30T21:22:25.371Z,20.02
2018-06-30T21:24:58.628Z,19.96
2018-06-30T21:27:26.980Z,19.94
2018-06-30T21:29:55.488Z,20.08
2018-06-30T21:32:24.839Z,19.85
2018-06-30T21:34:53.427Z,19.66
2018-06-30T21:37:22.023Z,19.81
2018-06-30T21:39:51.042Z,19.73
2018-06-30T21:42:21.179Z,19.67
2018-06-30T21:44:49.550Z,19.56
2018-06-30T21:47:17.870Z,19.46
2018-06-30T21:49:46.219Z,19.32
2018-06-30T21:52:14.499Z,19.42
2018-06-30T21:54:43.062Z,19.43
2018-06-30T21:57:11.357Z,19.33
2018-06-30T21:59:40.176Z,19.31
2018-06-30T22:02:09.122Z,19.25
2018-06-30T22:04:38.214Z,19.25
2018-06-30T22:07:06.787Z,19.18
2018-06-30T22:09:35.452Z,18.97
2018-06-30T22:12:04.888Z,19.01
2018-06-30T22:14:33.292Z,19.03
2018-06-30T22:17:02.031Z,19.06
2018-06-30T22:19:30.343Z,19.04
2018-06-30T22:21:59.308Z,18.89
2018-06-30T22:24:28.088Z,18.92
2018-06-30T22:26:57.342Z,18.82
2018-06-30T22:29:25.844Z,18.68
2018-06-30T22:31:54.108Z,18.71
2018-06-30T22:34:23.195Z,18.61
2018-06-30T22:36:56.276Z,18.65
2018-06-30T22:39:41.823Z,18.45
2018-06-30T22:42:10.465Z,18.46
2018-06-30T22:44:38.929Z,18.46
2018-06-30T22:47:08.033Z,18.38
2018-06-30T22:49:36.259Z,18.45
2018-06-30T22:52:05.093Z,18.35
2018-06-30T22:54:33.647Z,18.38
2018-06-30T22:57:02.775Z,18.46
2018-06-30T22:59:31.028Z,18.18
2018-06-30T23:02:00.027Z,18.18
2018-06-30T23:04:28.623Z,18.15
2018-06-30T23:06:57.047Z,18.18
2018-06-30T23:09:25.520Z,18.12
2018-06-30T23:11:53.726Z,18.11
2018-06-30T23:14:22.225Z,18.10
2018-06-30T23:16:50.457Z,18.04
2018-06-30T23:19:18.653Z,18.05
2018-06-30T23:21:47.510Z,17.94
2018-06-30T23:24:16.086Z,17.96
2018-06-30T23:26:44.527Z,17.96
2018-06-30T23:29:13.269Z,17.81
2018-06-30T23:31:41.718Z,17.86
2018-06-30T23:34:09.940Z,17.93
2018-06-30T23:36:38.338Z,17.63
2018-06-30T23:39:09.893Z,17.81
2018-06-30T23:41:38.721Z,17.67
2018-06-30T23:44:07.885Z,17.71
2018-06-30T23:46:36.368Z,17.87
2018-06-30T23:49:05.285Z,17.64
2018-06-30T23:51:33.527Z,17.74
2018-06-30T23:54:02.542Z,17.52
2018-06-30T23:56:30.925Z,17.65
2018-06-30T23:58:59.282Z,17.50
